Abegall, Kentucky
Current Conditions -  °F | °C
As of 10:55 AM on Tuesday 21 Oct 2014 (Local Time) from KFGX Reporting Station
Overcast Overcast  
Wind Chill: 53°   Ceiling: 6000
Heat Index: 53°   Visibility: 10mi
Dew Point: 45°   Wind: 10mph
Humidity: 74%   Direction: 320°NW
Pressure: 30.02"   Gusts: NA
Location:  38.6546°N, 83.9578°W
Report Text: KFGX 211455Z AUTO 32009KT 10SM SCT018 OVC060 12/07 A3002 RMK AO2 T01150071
Loading
Personal Weather Stations






























Interactive Weather Map
Tropical Storm Tracking
New forecast layout! Learn more

10-Day Weather Forecast

Advertisements
Track Severe Weather on mobile